sensor_id;sensor_type;location;lat;lon;timestamp;temperature;humidity
17341;DHT22;8788;49.930;8.660;2022-07-12T00:00:56;18.50;99.90
17341;DHT22;8788;49.930;8.660;2022-07-12T00:03:23;18.50;99.90
17341;DHT22;8788;49.930;8.660;2022-07-12T00:05:50;18.40;99.90
17341;DHT22;8788;49.930;8.660;2022-07-12T00:08:17;18.40;99.90
17341;DHT22;8788;49.930;8.660;2022-07-12T00:10:45;18.40;99.90
17341;DHT22;8788;49.930;8.660;2022-07-12T00:13:13;18.30;99.90
17341;DHT22;8788;49.930;8.660;2022-07-12T00:15:41;18.30;99.90
17341;DHT22;8788;49.930;8.660;2022-07-12T00:18:08;18.30;99.90
17341;DHT22;8788;49.930;8.660;2022-07-12T00:20:36;18.30;99.90
17341;DHT22;8788;49.930;8.660;2022-07-12T00:23:04;18.30;99.90
17341;DHT22;8788;49.930;8.660;2022-07-12T00:25:31;18.20;99.90
17341;DHT22;8788;49.930;8.660;2022-07-12T00:27:58;18.20;99.90
17341;DHT22;8788;49.930;8.660;2022-07-12T00:30:27;18.10;99.90
17341;DHT22;8788;49.930;8.660;2022-07-12T00:32:54;18.10;99.90
17341;DHT22;8788;49.930;8.660;2022-07-12T00:35:21;18.10;99.90
17341;DHT22;8788;49.930;8.660;2022-07-12T00:37:48;18.10;99.90
17341;DHT22;8788;49.930;8.660;2022-07-12T00:40:16;18.00;99.90
17341;DHT22;8788;49.930;8.660;2022-07-12T00:42:43;18.00;99.90
17341;DHT22;8788;49.930;8.660;2022-07-12T00:45:10;18.00;99.90
17341;DHT22;8788;49.930;8.660;2022-07-12T00:47:41;18.00;99.90
17341;DHT22;8788;49.930;8.660;2022-07-12T00:50:11;18.00;99.90
17341;DHT22;8788;49.930;8.660;2022-07-12T00:52:39;17.90;99.90
17341;DHT22;8788;49.930;8.660;2022-07-12T00:55:07;18.00;99.90
17341;DHT22;8788;49.930;8.660;2022-07-12T00:57:35;18.00;99.90
17341;DHT22;8788;49.930;8.660;2022-07-12T01:00:05;17.90;99.90
17341;DHT22;8788;49.930;8.660;2022-07-12T01:02:34;17.90;99.90
17341;DHT22;8788;49.930;8.660;2022-07-12T01:05:04;17.80;99.90
17341;DHT22;8788;49.930;8.660;2022-07-12T01:07:31;17.70;99.90
17341;DHT22;8788;49.930;8.660;2022-07-12T01:09:59;17.60;99.90
17341;DHT22;8788;49.930;8.660;2022-07-12T01:12:26;17.50;99.90
17341;DHT22;8788;49.930;8.660;2022-07-12T01:14:54;17.40;99.90
17341;DHT22;8788;49.930;8.660;2022-07-12T01:17:22;17.40;99.90
17341;DHT22;8788;49.930;8.660;2022-07-12T01:19:52;17.30;99.90
17341;DHT22;8788;49.930;8.660;2022-07-12T01:22:25;17.20;99.90
17341;DHT22;8788;49.930;8.660;2022-07-12T01:24:55;17.20;99.90
17341;DHT22;8788;49.930;8.660;2022-07-12T01:27:22;17.10;99.90
17341;DHT22;8788;49.930;8.660;2022-07-12T01:29:50;17.10;99.90
17341;DHT22;8788;49.930;8.660;2022-07-12T01:32:17;17.00;99.90
17341;DHT22;8788;49.930;8.660;2022-07-12T01:34:55;17.00;99.90
17341;DHT22;8788;49.930;8.660;2022-07-12T01:37:24;17.00;99.90
17341;DHT22;8788;49.930;8.660;2022-07-12T01:39:53;16.90;99.90
17341;DHT22;8788;49.930;8.660;2022-07-12T01:42:23;16.90;99.90
17341;DHT22;8788;49.930;8.660;2022-07-12T01:44:52;16.90;99.90
17341;DHT22;8788;49.930;8.660;2022-07-12T01:47:22;16.90;99.90
17341;DHT22;8788;49.930;8.660;2022-07-12T01:49:49;16.90;99.90
17341;DHT22;8788;49.930;8.660;2022-07-12T01:52:17;16.80;99.90
17341;DHT22;8788;49.930;8.660;2022-07-12T01:54:45;16.80;99.90
17341;DHT22;8788;49.930;8.660;2022-07-12T01:57:13;16.80;99.90
17341;DHT22;8788;49.930;8.660;2022-07-12T01:59:42;16.80;99.90
17341;DHT22;8788;49.930;8.660;2022-07-12T02:02:09;16.80;99.90
17341;DHT22;8788;49.930;8.660;2022-07-12T02:04:37;16.70;99.90
17341;DHT22;8788;49.930;8.660;2022-07-12T02:07:05;16.60;99.90
17341;DHT22;8788;49.930;8.660;2022-07-12T02:09:32;16.60;99.90
17341;DHT22;8788;49.930;8.660;2022-07-12T02:11:59;16.50;99.90
17341;DHT22;8788;49.930;8.660;2022-07-12T02:14:26;16.40;99.90
17341;DHT22;8788;49.930;8.660;2022-07-12T02:16:55;16.40;99.90
17341;DHT22;8788;49.930;8.660;2022-07-12T02:19:22;16.40;99.90
17341;DHT22;8788;49.930;8.660;2022-07-12T02:21:49;16.40;99.90
17341;DHT22;8788;49.930;8.660;2022-07-12T02:24:16;16.40;99.90
17341;DHT22;8788;49.930;8.660;2022-07-12T02:26:44;16.40;99.90
17341;DHT22;8788;49.930;8.660;2022-07-12T02:29:11;16.40;99.90
17341;DHT22;8788;49.930;8.660;2022-07-12T02:31:38;16.30;99.90
17341;DHT22;8788;49.930;8.660;2022-07-12T02:34:07;16.30;99.90
17341;DHT22;8788;49.930;8.660;2022-07-12T02:36:34;16.30;99.90
17341;DHT22;8788;49.930;8.660;2022-07-12T02:39:02;16.30;99.90
17341;DHT22;8788;49.930;8.660;2022-07-12T02:41:30;16.30;99.90
17341;DHT22;8788;49.930;8.660;2022-07-12T02:43:57;16.20;99.90
17341;DHT22;8788;49.930;8.660;2022-07-12T02:46:25;16.20;99.90
17341;DHT22;8788;49.930;8.660;2022-07-12T02:48:52;16.10;99.90
17341;DHT22;8788;49.930;8.660;2022-07-12T02:51:21;16.10;99.90
17341;DHT22;8788;49.930;8.660;2022-07-12T02:53:50;16.10;99.90
17341;DHT22;8788;49.930;8.660;2022-07-12T02:56:17;16.20;99.90
17341;DHT22;8788;49.930;8.660;2022-07-12T02:58:44;16.10;99.90
17341;DHT22;8788;49.930;8.660;2022-07-12T03:01:11;16.10;99.90
17341;DHT22;8788;49.930;8.660;2022-07-12T03:03:45;16.10;99.90
17341;DHT22;8788;49.930;8.660;2022-07-12T03:06:12;16.10;99.90
17341;DHT22;8788;49.930;8.660;2022-07-12T03:08:41;16.00;99.90
17341;DHT22;8788;49.930;8.660;2022-07-12T03:11:08;16.00;99.90
17341;DHT22;8788;49.930;8.660;2022-07-12T03:13:35;16.10;99.90
17341;DHT22;8788;49.930;8.660;2022-07-12T03:16:03;16.00;99.90
17341;DHT22;8788;49.930;8.660;2022-07-12T03:18:30;16.00;99.90
17341;DHT22;8788;49.930;8.660;2022-07-12T03:20:57;16.00;99.90
17341;DHT22;8788;49.930;8.660;2022-07-12T03:23:24;15.90;99.90
17341;DHT22;8788;49.930;8.660;2022-07-12T03:25:53;15.80;99.90
17341;DHT22;8788;49.930;8.660;2022-07-12T03:28:20;15.80;99.90
17341;DHT22;8788;49.930;8.660;2022-07-12T03:30:47;15.80;99.90
17341;DHT22;8788;49.930;8.660;2022-07-12T03:33:14;15.80;99.90
17341;DHT22;8788;49.930;8.660;2022-07-12T03:35:42;15.80;99.90
17341;DHT22;8788;49.930;8.660;2022-07-12T03:38:09;15.80;99.90
17341;DHT22;8788;49.930;8.660;2022-07-12T03:40:36;15.80;99.90
17341;DHT22;8788;49.930;8.660;2022-07-12T03:43:04;15.70;99.90
17341;DHT22;8788;49.930;8.660;2022-07-12T03:45:32;15.70;99.90
17341;DHT22;8788;49.930;8.660;2022-07-12T03:47:59;15.70;99.90
17341;DHT22;8788;49.930;8.660;2022-07-12T03:50:27;15.70;99.90
17341;DHT22;8788;49.930;8.660;2022-07-12T03:52:54;15.70;99.90
17341;DHT22;8788;49.930;8.660;2022-07-12T03:55:21;15.70;99.90
17341;DHT22;8788;49.930;8.660;2022-07-12T03:57:48;15.70;99.90
17341;DHT22;8788;49.930;8.660;2022-07-12T04:00:17;15.80;99.90
17341;DHT22;8788;49.930;8.660;2022-07-12T04:02:44;15.80;99.90
17341;DHT22;8788;49.930;8.660;2022-07-12T04:05:13;15.80;99.90
17341;DHT22;8788;49.930;8.660;2022-07-12T04:07:40;15.90;99.90
17341;DHT22;8788;49.930;8.660;2022-07-12T04:10:08;15.90;99.90
17341;DHT22;8788;49.930;8.660;2022-07-12T04:12:36;16.00;99.90
17341;DHT22;8788;49.930;8.660;2022-07-12T04:15:04;15.90;99.90
17341;DHT22;8788;49.930;8.660;2022-07-12T04:17:34;16.00;99.90
17341;DHT22;8788;49.930;8.660;2022-07-12T04:20:01;16.00;99.90
17341;DHT22;8788;49.930;8.660;2022-07-12T04:22:28;15.90;99.90
17341;DHT22;8788;49.930;8.660;2022-07-12T04:24:55;15.90;99.90
17341;DHT22;8788;49.930;8.660;2022-07-12T04:27:22;15.90;99.90
17341;DHT22;8788;49.930;8.660;2022-07-12T04:29:52;15.90;99.90
17341;DHT22;8788;49.930;8.660;2022-07-12T04:32:19;15.90;99.90
17341;DHT22;8788;49.930;8.660;2022-07-12T04:34:47;15.90;99.90
17341;DHT22;8788;49.930;8.660;2022-07-12T04:37:14;15.90;99.90
17341;DHT22;8788;49.930;8.660;2022-07-12T04:40:08;15.90;99.90
17341;DHT22;8788;49.930;8.660;2022-07-12T04:42:35;15.80;99.90
17341;DHT22;8788;49.930;8.660;2022-07-12T04:45:03;15.90;99.90
17341;DHT22;8788;49.930;8.660;2022-07-12T04:47:30;15.90;99.90
17341;DHT22;8788;49.930;8.660;2022-07-12T04:49:59;15.90;99.90
17341;DHT22;8788;49.930;8.660;2022-07-12T04:52:26;16.00;99.90
17341;DHT22;8788;49.930;8.660;2022-07-12T04:54:53;16.00;99.90
17341;DHT22;8788;49.930;8.660;2022-07-12T04:57:20;16.10;99.90
17341;DHT22;8788;49.930;8.660;2022-07-12T04:59:47;16.20;99.90
17341;DHT22;8788;49.930;8.660;2022-07-12T05:02:14;16.20;99.90
17341;DHT22;8788;49.930;8.660;2022-07-12T05:04:41;16.30;99.90
17341;DHT22;8788;49.930;8.660;2022-07-12T05:07:10;16.40;99.90
17341;DHT22;8788;49.930;8.660;2022-07-12T05:09:38;16.50;99.90
17341;DHT22;8788;49.930;8.660;2022-07-12T05:12:06;16.60;99.90
17341;DHT22;8788;49.930;8.660;2022-07-12T05:14:33;16.70;99.90
17341;DHT22;8788;49.930;8.660;2022-07-12T05:17:00;16.70;99.90
17341;DHT22;8788;49.930;8.660;2022-07-12T05:19:28;16.80;99.90
17341;DHT22;8788;49.930;8.660;2022-07-12T05:21:55;16.90;99.90
17341;DHT22;8788;49.930;8.660;2022-07-12T05:24:23;17.10;99.90
17341;DHT22;8788;49.930;8.660;2022-07-12T05:26:50;17.10;99.90
17341;DHT22;8788;49.930;8.660;2022-07-12T05:29:17;17.30;99.90
17341;DHT22;8788;49.930;8.660;2022-07-12T05:32:10;17.40;99.90
17341;DHT22;8788;49.930;8.660;2022-07-12T05:34:37;17.50;99.90
17341;DHT22;8788;49.930;8.660;2022-07-12T05:37:05;17.60;99.90
17341;DHT22;8788;49.930;8.660;2022-07-12T05:39:33;17.70;99.90
17341;DHT22;8788;49.930;8.660;2022-07-12T05:42:00;17.80;99.90
17341;DHT22;8788;49.930;8.660;2022-07-12T05:44:27;17.80;99.90
17341;DHT22;8788;49.930;8.660;2022-07-12T05:46:55;17.90;99.90
17341;DHT22;8788;49.930;8.660;2022-07-12T05:49:22;18.00;99.90
17341;DHT22;8788;49.930;8.660;2022-07-12T05:51:49;18.10;99.90
17341;DHT22;8788;49.930;8.660;2022-07-12T05:54:35;18.20;99.90
17341;DHT22;8788;49.930;8.660;2022-07-12T05:57:02;18.30;99.90
17341;DHT22;8788;49.930;8.660;2022-07-12T05:59:29;18.40;99.90
17341;DHT22;8788;49.930;8.660;2022-07-12T06:01:57;18.40;99.90
17341;DHT22;8788;49.930;8.660;2022-07-12T06:04:24;18.60;99.90
17341;DHT22;8788;49.930;8.660;2022-07-12T06:06:51;18.60;99.90
17341;DHT22;8788;49.930;8.660;2022-07-12T06:09:18;18.70;99.90
17341;DHT22;8788;49.930;8.660;2022-07-12T06:11:46;18.80;99.90
17341;DHT22;8788;49.930;8.660;2022-07-12T06:14:14;18.90;99.90
17341;DHT22;8788;49.930;8.660;2022-07-12T06:16:41;19.00;99.90
17341;DHT22;8788;49.930;8.660;2022-07-12T06:19:08;19.10;99.90
17341;DHT22;8788;49.930;8.660;2022-07-12T06:21:35;19.20;99.90
17341;DHT22;8788;49.930;8.660;2022-07-12T06:24:02;19.20;99.90
17341;DHT22;8788;49.930;8.660;2022-07-12T06:26:30;19.30;99.90
17341;DHT22;8788;49.930;8.660;2022-07-12T06:28:58;19.50;99.90
17341;DHT22;8788;49.930;8.660;2022-07-12T06:31:25;19.50;99.90
17341;DHT22;8788;49.930;8.660;2022-07-12T06:33:52;19.50;99.90
17341;DHT22;8788;49.930;8.660;2022-07-12T06:36:19;19.60;99.90
17341;DHT22;8788;49.930;8.660;2022-07-12T06:38:46;19.60;99.90
17341;DHT22;8788;49.930;8.660;2022-07-12T06:41:14;19.70;99.90
17341;DHT22;8788;49.930;8.660;2022-07-12T06:43:41;19.80;99.90
17341;DHT22;8788;49.930;8.660;2022-07-12T06:46:09;19.80;99.90
17341;DHT22;8788;49.930;8.660;2022-07-12T06:48:37;19.90;99.90
17341;DHT22;8788;49.930;8.660;2022-07-12T06:51:04;20.00;99.90
17341;DHT22;8788;49.930;8.660;2022-07-12T06:53:31;20.00;99.90
17341;DHT22;8788;49.930;8.660;2022-07-12T06:55:58;20.10;99.90
17341;DHT22;8788;49.930;8.660;2022-07-12T06:58:25;20.10;99.90
17341;DHT22;8788;49.930;8.660;2022-07-12T07:00:52;20.20;99.90
17341;DHT22;8788;49.930;8.660;2022-07-12T07:03:21;20.20;99.90
17341;DHT22;8788;49.930;8.660;2022-07-12T07:05:54;20.30;99.90
17341;DHT22;8788;49.930;8.660;2022-07-12T07:08:21;20.40;99.90
17341;DHT22;8788;49.930;8.660;2022-07-12T07:10:48;20.50;99.90
17341;DHT22;8788;49.930;8.660;2022-07-12T07:13:15;20.60;99.90
17341;DHT22;8788;49.930;8.660;2022-07-12T07:15:43;20.60;99.90
17341;DHT22;8788;49.930;8.660;2022-07-12T07:18:10;20.80;99.90
17341;DHT22;8788;49.930;8.660;2022-07-12T07:20:39;20.90;99.90
17341;DHT22;8788;49.930;8.660;2022-07-12T07:23:06;21.00;99.90
17341;DHT22;8788;49.930;8.660;2022-07-12T07:25:36;21.10;99.90
17341;DHT22;8788;49.930;8.660;2022-07-12T07:28:03;21.10;99.90
17341;DHT22;8788;49.930;8.660;2022-07-12T07:30:30;21.30;99.90
17341;DHT22;8788;49.930;8.660;2022-07-12T07:33:15;21.30;99.90
17341;DHT22;8788;49.930;8.660;2022-07-12T07:35:44;21.30;99.90
17341;DHT22;8788;49.930;8.660;2022-07-12T07:38:11;21.40;99.90
17341;DHT22;8788;49.930;8.660;2022-07-12T07:40:38;21.50;99.90
17341;DHT22;8788;49.930;8.660;2022-07-12T07:43:05;21.50;99.90
17341;DHT22;8788;49.930;8.660;2022-07-12T07:45:32;21.60;99.90
17341;DHT22;8788;49.930;8.660;2022-07-12T07:47:59;21.70;99.90
17341;DHT22;8788;49.930;8.660;2022-07-12T07:50:27;21.80;99.90
17341;DHT22;8788;49.930;8.660;2022-07-12T07:52:55;21.90;99.90
17341;DHT22;8788;49.930;8.660;2022-07-12T07:55:22;21.90;99.90
17341;DHT22;8788;49.930;8.660;2022-07-12T07:57:49;22.00;99.90
17341;DHT22;8788;49.930;8.660;2022-07-12T08:00:17;22.10;99.90
17341;DHT22;8788;49.930;8.660;2022-07-12T08:03:09;22.10;99.90
17341;DHT22;8788;49.930;8.660;2022-07-12T08:05:36;22.00;99.90
17341;DHT22;8788;49.930;8.660;2022-07-12T08:08:05;22.00;99.90
17341;DHT22;8788;49.930;8.660;2022-07-12T08:10:32;21.90;99.90
17341;DHT22;8788;49.930;8.660;2022-07-12T08:13:00;21.80;99.90
17341;DHT22;8788;49.930;8.660;2022-07-12T08:15:27;21.80;99.90
17341;DHT22;8788;49.930;8.660;2022-07-12T08:17:56;21.90;99.90
17341;DHT22;8788;49.930;8.660;2022-07-12T08:20:23;21.90;99.90
17341;DHT22;8788;49.930;8.660;2022-07-12T08:22:51;22.10;99.90
17341;DHT22;8788;49.930;8.660;2022-07-12T08:25:19;22.10;99.90
17341;DHT22;8788;49.930;8.660;2022-07-12T08:27:47;22.20;99.90
17341;DHT22;8788;49.930;8.660;2022-07-12T08:30:14;22.20;99.90
17341;DHT22;8788;49.930;8.660;2022-07-12T08:32:45;22.20;99.90
17341;DHT22;8788;49.930;8.660;2022-07-12T08:35:13;22.20;99.90
17341;DHT22;8788;49.930;8.660;2022-07-12T08:37:41;22.10;99.90
17341;DHT22;8788;49.930;8.660;2022-07-12T08:40:08;22.20;99.90
17341;DHT22;8788;49.930;8.660;2022-07-12T08:42:40;22.20;99.90
17341;DHT22;8788;49.930;8.660;2022-07-12T08:45:09;22.20;99.90
17341;DHT22;8788;49.930;8.660;2022-07-12T08:47:36;22.20;99.90
17341;DHT22;8788;49.930;8.660;2022-07-12T08:50:14;22.10;99.90
17341;DHT22;8788;49.930;8.660;2022-07-12T08:53:11;22.20;99.90
17341;DHT22;8788;49.930;8.660;2022-07-12T08:55:38;22.20;99.90
17341;DHT22;8788;49.930;8.660;2022-07-12T08:58:15;22.30;99.90
17341;DHT22;8788;49.930;8.660;2022-07-12T09:00:50;22.30;99.90
17341;DHT22;8788;49.930;8.660;2022-07-12T09:03:18;22.30;99.90
17341;DHT22;8788;49.930;8.660;2022-07-12T09:05:51;22.30;99.90
17341;DHT22;8788;49.930;8.660;2022-07-12T09:08:23;22.30;99.90
17341;DHT22;8788;49.930;8.660;2022-07-12T09:10:53;22.40;99.90
17341;DHT22;8788;49.930;8.660;2022-07-12T09:13:47;22.50;99.90
17341;DHT22;8788;49.930;8.660;2022-07-12T09:16:16;22.50;99.90
17341;DHT22;8788;49.930;8.660;2022-07-12T09:18:43;22.50;99.90
17341;DHT22;8788;49.930;8.660;2022-07-12T09:21:21;22.70;99.90
17341;DHT22;8788;49.930;8.660;2022-07-12T09:23:52;22.80;99.90
17341;DHT22;8788;49.930;8.660;2022-07-12T09:26:20;23.00;99.90
17341;DHT22;8788;49.930;8.660;2022-07-12T09:28:50;23.30;99.90
17341;DHT22;8788;49.930;8.660;2022-07-12T09:31:19;23.50;99.90
17341;DHT22;8788;49.930;8.660;2022-07-12T09:34:02;23.60;99.90
17341;DHT22;8788;49.930;8.660;2022-07-12T09:37:04;23.70;99.90
17341;DHT22;8788;49.930;8.660;2022-07-12T09:39:32;23.80;99.90
17341;DHT22;8788;49.930;8.660;2022-07-12T09:42:02;23.90;99.90
17341;DHT22;8788;49.930;8.660;2022-07-12T09:44:32;24.00;99.90
17341;DHT22;8788;49.930;8.660;2022-07-12T09:47:00;24.10;99.90
17341;DHT22;8788;49.930;8.660;2022-07-12T09:49:28;24.20;99.90
17341;DHT22;8788;49.930;8.660;2022-07-12T09:51:56;24.20;99.90
17341;DHT22;8788;49.930;8.660;2022-07-12T09:54:26;24.40;99.90
17341;DHT22;8788;49.930;8.660;2022-07-12T09:56:59;24.50;99.90
17341;DHT22;8788;49.930;8.660;2022-07-12T09:59:28;24.70;99.90
17341;DHT22;8788;49.930;8.660;2022-07-12T10:01:57;24.90;99.40
17341;DHT22;8788;49.930;8.660;2022-07-12T10:04:30;24.90;98.70
17341;DHT22;8788;49.930;8.660;2022-07-12T10:06:57;24.90;98.30
17341;DHT22;8788;49.930;8.660;2022-07-12T10:09:25;25.00;98.10
17341;DHT22;8788;49.930;8.660;2022-07-12T10:11:55;25.10;98.00
17341;DHT22;8788;49.930;8.660;2022-07-12T10:14:23;25.20;97.90
17341;DHT22;8788;49.930;8.660;2022-07-12T10:16:51;25.30;97.60
17341;DHT22;8788;49.930;8.660;2022-07-12T10:19:27;25.30;97.30
17341;DHT22;8788;49.930;8.660;2022-07-12T10:21:57;25.40;97.00
17341;DHT22;8788;49.930;8.660;2022-07-12T10:24:50;25.40;96.90
17341;DHT22;8788;49.930;8.660;2022-07-12T10:27:30;25.40;96.60
17341;DHT22;8788;49.930;8.660;2022-07-12T10:30:16;25.50;96.40
17341;DHT22;8788;49.930;8.660;2022-07-12T10:33:15;25.60;96.10
17341;DHT22;8788;49.930;8.660;2022-07-12T10:36:08;25.70;96.20
17341;DHT22;8788;49.930;8.660;2022-07-12T10:38:36;25.80;95.80
17341;DHT22;8788;49.930;8.660;2022-07-12T10:41:16;25.80;95.30
17341;DHT22;8788;49.930;8.660;2022-07-12T10:43:44;25.70;94.90
17341;DHT22;8788;49.930;8.660;2022-07-12T10:46:29;25.70;95.00
17341;DHT22;8788;49.930;8.660;2022-07-12T10:49:24;25.70;93.80
17341;DHT22;8788;49.930;8.660;2022-07-12T10:52:16;25.50;93.30
17341;DHT22;8788;49.930;8.660;2022-07-12T10:54:47;25.50;93.80
17341;DHT22;8788;49.930;8.660;2022-07-12T10:57:38;25.50;93.80
17341;DHT22;8788;49.930;8.660;2022-07-12T11:00:07;25.70;93.60
17341;DHT22;8788;49.930;8.660;2022-07-12T11:02:35;25.90;93.20
17341;DHT22;8788;49.930;8.660;2022-07-12T11:05:02;26.00;92.70
17341;DHT22;8788;49.930;8.660;2022-07-12T11:07:31;26.00;92.60
17341;DHT22;8788;49.930;8.660;2022-07-12T11:09:58;26.10;92.40
17341;DHT22;8788;49.930;8.660;2022-07-12T11:12:27;26.20;92.40
17341;DHT22;8788;49.930;8.660;2022-07-12T11:14:55;26.30;92.40
17341;DHT22;8788;49.930;8.660;2022-07-12T11:17:25;26.30;92.40
17341;DHT22;8788;49.930;8.660;2022-07-12T11:20:07;26.50;92.20
17341;DHT22;8788;49.930;8.660;2022-07-12T11:22:38;26.60;91.60
17341;DHT22;8788;49.930;8.660;2022-07-12T11:25:07;26.60;90.70
17341;DHT22;8788;49.930;8.660;2022-07-12T11:27:35;26.60;90.80
17341;DHT22;8788;49.930;8.660;2022-07-12T11:30:04;26.60;90.70
17341;DHT22;8788;49.930;8.660;2022-07-12T11:32:36;26.60;90.80
17341;DHT22;8788;49.930;8.660;2022-07-12T11:35:16;26.60;90.40
17341;DHT22;8788;49.930;8.660;2022-07-12T11:37:53;26.50;90.00
17341;DHT22;8788;49.930;8.660;2022-07-12T11:40:27;26.50;90.00
17341;DHT22;8788;49.930;8.660;2022-07-12T11:42:56;26.40;89.90
17341;DHT22;8788;49.930;8.660;2022-07-12T11:45:25;26.50;90.20
17341;DHT22;8788;49.930;8.660;2022-07-12T11:47:52;26.70;90.10
17341;DHT22;8788;49.930;8.660;2022-07-12T11:50:20;26.80;88.10
17341;DHT22;8788;49.930;8.660;2022-07-12T11:52:54;26.90;88.30
17341;DHT22;8788;49.930;8.660;2022-07-12T11:55:22;27.10;88.50
17341;DHT22;8788;49.930;8.660;2022-07-12T11:57:49;27.20;88.10
17341;DHT22;8788;49.930;8.660;2022-07-12T12:00:18;27.20;85.90
17341;DHT22;8788;49.930;8.660;2022-07-12T12:03:11;27.10;86.00
17341;DHT22;8788;49.930;8.660;2022-07-12T12:05:39;27.10;86.20
17341;DHT22;8788;49.930;8.660;2022-07-12T12:08:08;27.10;85.70
17341;DHT22;8788;49.930;8.660;2022-07-12T12:10:37;27.10;84.20
17341;DHT22;8788;49.930;8.660;2022-07-12T12:13:04;27.00;83.50
17341;DHT22;8788;49.930;8.660;2022-07-12T12:15:47;27.00;84.00
17341;DHT22;8788;49.930;8.660;2022-07-12T12:18:15;27.10;83.90
17341;DHT22;8788;49.930;8.660;2022-07-12T12:20:43;27.30;83.20
17341;DHT22;8788;49.930;8.660;2022-07-12T12:23:17;27.50;82.90
17341;DHT22;8788;49.930;8.660;2022-07-12T12:25:45;27.60;82.00
17341;DHT22;8788;49.930;8.660;2022-07-12T12:28:12;27.60;80.80
17341;DHT22;8788;49.930;8.660;2022-07-12T12:30:49;27.60;80.40
17341;DHT22;8788;49.930;8.660;2022-07-12T12:33:34;27.70;80.10
17341;DHT22;8788;49.930;8.660;2022-07-12T12:36:15;27.80;80.50
17341;DHT22;8788;49.930;8.660;2022-07-12T12:39:09;27.80;80.00
17341;DHT22;8788;49.930;8.660;2022-07-12T12:41:40;27.90;80.10
17341;DHT22;8788;49.930;8.660;2022-07-12T12:44:11;27.90;79.70
17341;DHT22;8788;49.930;8.660;2022-07-12T12:46:45;28.00;79.70
17341;DHT22;8788;49.930;8.660;2022-07-12T12:49:13;28.20;78.70
17341;DHT22;8788;49.930;8.660;2022-07-12T12:51:57;28.30;78.30
17341;DHT22;8788;49.930;8.660;2022-07-12T12:54:34;28.40;77.70
17341;DHT22;8788;49.930;8.660;2022-07-12T12:57:02;28.50;76.60
17341;DHT22;8788;49.930;8.660;2022-07-12T12:59:29;28.60;76.20
17341;DHT22;8788;49.930;8.660;2022-07-12T13:01:56;28.60;75.50
17341;DHT22;8788;49.930;8.660;2022-07-12T13:04:29;28.70;75.10
17341;DHT22;8788;49.930;8.660;2022-07-12T13:06:57;28.80;75.10
17341;DHT22;8788;49.930;8.660;2022-07-12T13:09:24;28.80;74.50
17341;DHT22;8788;49.930;8.660;2022-07-12T13:11:53;28.80;73.80
17341;DHT22;8788;49.930;8.660;2022-07-12T13:14:20;28.70;73.30
17341;DHT22;8788;49.930;8.660;2022-07-12T13:17:12;28.70;72.80
17341;DHT22;8788;49.930;8.660;2022-07-12T13:19:39;28.60;72.00
17341;DHT22;8788;49.930;8.660;2022-07-12T13:22:06;28.60;72.60
17341;DHT22;8788;49.930;8.660;2022-07-12T13:24:34;28.70;72.10
17341;DHT22;8788;49.930;8.660;2022-07-12T13:27:03;28.80;71.10
17341;DHT22;8788;49.930;8.660;2022-07-12T13:29:30;28.70;70.50
17341;DHT22;8788;49.930;8.660;2022-07-12T13:31:57;28.80;70.80
17341;DHT22;8788;49.930;8.660;2022-07-12T13:34:24;28.80;70.10
17341;DHT22;8788;49.930;8.660;2022-07-12T13:36:55;28.90;70.10
17341;DHT22;8788;49.930;8.660;2022-07-12T13:39:22;28.90;69.70
17341;DHT22;8788;49.930;8.660;2022-07-12T13:42:08;29.00;69.60
17341;DHT22;8788;49.930;8.660;2022-07-12T13:44:35;29.00;70.00
17341;DHT22;8788;49.930;8.660;2022-07-12T13:47:02;29.10;69.60
17341;DHT22;8788;49.930;8.660;2022-07-12T13:49:30;29.20;68.90
17341;DHT22;8788;49.930;8.660;2022-07-12T13:51:57;29.30;68.60
17341;DHT22;8788;49.930;8.660;2022-07-12T13:54:24;29.40;68.40
17341;DHT22;8788;49.930;8.660;2022-07-12T13:56:55;29.50;68.20
17341;DHT22;8788;49.930;8.660;2022-07-12T13:59:23;29.70;68.20
17341;DHT22;8788;49.930;8.660;2022-07-12T14:01:51;29.80;68.30
17341;DHT22;8788;49.930;8.660;2022-07-12T14:04:19;29.90;67.70
17341;DHT22;8788;49.930;8.660;2022-07-12T14:06:46;30.00;67.00
17341;DHT22;8788;49.930;8.660;2022-07-12T14:09:14;30.00;66.00
17341;DHT22;8788;49.930;8.660;2022-07-12T14:11:42;30.00;65.90
17341;DHT22;8788;49.930;8.660;2022-07-12T14:14:09;30.00;65.60
17341;DHT22;8788;49.930;8.660;2022-07-12T14:16:38;30.10;65.10
17341;DHT22;8788;49.930;8.660;2022-07-12T14:19:06;30.20;64.40
17341;DHT22;8788;49.930;8.660;2022-07-12T14:21:33;30.30;63.70
17341;DHT22;8788;49.930;8.660;2022-07-12T14:24:00;30.30;63.30
17341;DHT22;8788;49.930;8.660;2022-07-12T14:26:27;30.20;62.60
17341;DHT22;8788;49.930;8.660;2022-07-12T14:28:55;30.20;62.30
17341;DHT22;8788;49.930;8.660;2022-07-12T14:31:22;30.20;62.70
17341;DHT22;8788;49.930;8.660;2022-07-12T14:33:52;30.30;62.50
17341;DHT22;8788;49.930;8.660;2022-07-12T14:36:19;30.30;61.80
17341;DHT22;8788;49.930;8.660;2022-07-12T14:38:48;30.20;61.20
17341;DHT22;8788;49.930;8.660;2022-07-12T14:41:15;30.10;61.20
17341;DHT22;8788;49.930;8.660;2022-07-12T14:43:42;30.20;61.30
17341;DHT22;8788;49.930;8.660;2022-07-12T14:46:09;30.30;61.50
17341;DHT22;8788;49.930;8.660;2022-07-12T14:48:37;30.40;61.40
17341;DHT22;8788;49.930;8.660;2022-07-12T14:51:07;30.60;61.20
17341;DHT22;8788;49.930;8.660;2022-07-12T14:53:35;30.70;60.70
17341;DHT22;8788;49.930;8.660;2022-07-12T14:56:03;30.80;59.90
17341;DHT22;8788;49.930;8.660;2022-07-12T14:58:30;30.80;59.60
17341;DHT22;8788;49.930;8.660;2022-07-12T15:00:58;30.80;59.10
17341;DHT22;8788;49.930;8.660;2022-07-12T15:03:25;30.80;58.20
17341;DHT22;8788;49.930;8.660;2022-07-12T15:05:53;30.70;58.30
17341;DHT22;8788;49.930;8.660;2022-07-12T15:08:21;30.70;57.90
17341;DHT22;8788;49.930;8.660;2022-07-12T15:10:52;30.70;58.10
17341;DHT22;8788;49.930;8.660;2022-07-12T15:13:19;30.80;58.10
17341;DHT22;8788;49.930;8.660;2022-07-12T15:15:46;30.90;57.70
17341;DHT22;8788;49.930;8.660;2022-07-12T15:18:13;30.90;57.30
17341;DHT22;8788;49.930;8.660;2022-07-12T15:20:40;30.90;56.60
17341;DHT22;8788;49.930;8.660;2022-07-12T15:23:07;30.90;56.50
17341;DHT22;8788;49.930;8.660;2022-07-12T15:25:36;30.90;56.60
17341;DHT22;8788;49.930;8.660;2022-07-12T15:28:04;31.00;56.30
17341;DHT22;8788;49.930;8.660;2022-07-12T15:30:31;31.00;55.90
17341;DHT22;8788;49.930;8.660;2022-07-12T15:32:59;31.00;56.10
17341;DHT22;8788;49.930;8.660;2022-07-12T15:35:26;31.10;56.30
17341;DHT22;8788;49.930;8.660;2022-07-12T15:37:54;31.10;56.00
17341;DHT22;8788;49.930;8.660;2022-07-12T15:40:21;31.00;56.00
17341;DHT22;8788;49.930;8.660;2022-07-12T15:43:15;31.00;55.70
17341;DHT22;8788;49.930;8.660;2022-07-12T15:45:42;31.00;55.20
17341;DHT22;8788;49.930;8.660;2022-07-12T15:48:09;31.00;55.10
17341;DHT22;8788;49.930;8.660;2022-07-12T15:50:37;31.10;55.10
17341;DHT22;8788;49.930;8.660;2022-07-12T15:53:04;31.10;55.10
17341;DHT22;8788;49.930;8.660;2022-07-12T15:55:49;31.10;54.90
17341;DHT22;8788;49.930;8.660;2022-07-12T15:58:18;31.10;55.00
17341;DHT22;8788;49.930;8.660;2022-07-12T16:00:45;31.10;55.20